Charter Quote
Worldwide +1-877-727-2538 Call
Select Language Lang
SAFETY RELIABILITY EXPERIENCE

Private Jet Charter Services - Changbei Intl (ZSCN)

Paramount Business Jets offers private jet charter flights and luxury airliner charters to and from Changbei Intl.

AIRPORT INFORMATION
ICAOZSCN
LOCATIONNanchang, China
FACILITY TYPEAIRPORT

At Paramount Business Jets you can hire chartered private jets to and from Changbei Intl with as little as 4 hours of notice. All flights booked via Paramount Business Jets are operated by certified direct air carriers that meet and exceed the FAA part 135 and 121 protocol or a foreign equivalent safety authority. Furthermore, Paramount Business Jets subscribes to ARGUS for their third party safety checks of operators, aircraft, and crews prior each and every flight to and from Changbei Intl and worldwide.

  • Quote a trip using Changbei Intl or call us 24/7 - 365 days a year at +1-877-727-2538.
Questions? Call +1-877-727-2538

METAR Weather Data at Changbei Intl, ZSCN

STATIONZSCN
OBSERVEDTue Nov 13, 02:00 UTC
NOWMon Jul 22, 10:00 UTC
AGE6032:00 hr ago
WINDNNW at 4 mph
VISIBILITY6 miles
CONDITIONSmist
CLOUDSovercast
TEMP59°F (15°C)
DEWPT54°F (12°C)
HUMIDITY82%
BAROMETER1021 hPa (30.15 in Hg)
METARZSCN 130200Z 34002MPS 280V030 4000 BR SCT014 OVC040 15/12 Q1021 NOSIG

Call us on +1-877-727-2538 (24 Hours) to Hire a Private Jet or Get a Quick Quote.

Find Airports Near any Location

Processing
...